Impacts TAF Board
For situational awareness. Not to be used for flight planning purposes.
IDs:

KBOS - Boston/Logan Intl, MA, US

Issued at 2320 UTC 22 Oct 2018
Updated at 0401 UTC 23 Oct 2018
Potential Impact None Slight Moderate High
Time<<24/05Z 24/06Z 24/07Z 24/08Z 24/09Z 24/10Z 24/11Z 24/12Z 24/13Z 24/14Z 24/15Z 24/16Z 24/17Z
Type PRVL
VIS >6
CIG 40
Cover BKN
FltCat VFR
WX --
WDir 290
WSpd 6
WGst --
Raw TAF
KBOS 222320Z 2300/2406 28004KT P6SM OVC100
  FM230600 21005KT P6SM BKN150
  FM231100 18005KT P6SM BKN060
  FM231300 17005KT P6SM VCSH OVC045
  FM231400 16006KT P6SM VCSH OVC025
  FM231900 13007KT P6SM VCSH BKN020
  FM240000 29006KT P6SM BKN020
  FM240200 29006KT P6SM BKN040


METAR Board
Radar Display
Forecast Discussion
For situational awareness. Not to be used for flight planning purposes.